Time,TemperatureF,DewpointF,PressureIn,WindDirection,WindDirectionDegrees,WindSpeedMPH,WindSpeedGustMPH,Humidity,HourlyPrecipIn,Conditions,Clouds,dailyrainin,SoftwareType,DateUTC
2013-02-21 00:00:00,24.8,10.5,30.29,WSW,253,2.7,4.9,54,0.00,,---,0.00,VWS V13.01,2013-02-21 05:00:00,
2013-02-21 00:05:00,25.0,11.1,30.29,WSW,253,4.0,4.0,55,0.00,,---,0.00,VWS V13.01,2013-02-21 05:05:00,
2013-02-21 00:10:00,25.0,11.1,30.29,WSW,253,0.0,0.0,55,0.00,,---,0.00,VWS V13.01,2013-02-21 05:10:00,
2013-02-21 00:15:00,24.8,10.9,30.29,WSW,253,0.0,3.6,55,0.00,,---,0.00,VWS V13.01,2013-02-21 05:15:00,
2013-02-21 00:20:00,25.0,11.1,30.29,WSW,253,0.0,0.0,55,0.00,,---,0.00,VWS V13.01,2013-02-21 05:20:00,
2013-02-21 00:25:00,25.0,11.1,30.26,WSW,257,0.0,4.5,55,0.00,,---,0.00,VWS V13.01,2013-02-21 05:25:00,
2013-02-21 00:30:00,24.8,10.9,30.26,SW,236,0.0,2.7,55,0.00,,---,0.00,VWS V13.01,2013-02-21 05:30:00,
2013-02-21 00:35:00,25.0,11.1,30.26,NW,310,2.7,3.1,55,0.00,,---,0.00,VWS V13.01,2013-02-21 05:35:00,
2013-02-21 00:40:00,25.0,11.1,30.29,WSW,249,0.0,2.7,55,0.00,,---,0.00,VWS V13.01,2013-02-21 05:40:00,
2013-02-21 00:45:00,25.0,11.1,30.29,WSW,250,4.9,4.9,55,0.00,,---,0.00,VWS V13.01,2013-02-21 05:45:00,
2013-02-21 00:50:00,25.0,11.1,30.29,WSW,251,0.0,3.6,55,0.00,,---,0.00,VWS V13.01,2013-02-21 05:50:00,
2013-02-21 00:56:00,25.0,11.1,30.29,West,267,3.6,5.4,55,0.00,,---,0.00,VWS V13.01,2013-02-21 05:56:00,
2013-02-21 01:01:00,24.6,10.4,30.29,WSW,248,0.0,3.6,54,0.00,,---,0.00,VWS V13.01,2013-02-21 06:01:00,
2013-02-21 01:06:00,24.8,10.5,30.29,WSW,253,0.0,0.0,54,0.00,,---,0.00,VWS V13.01,2013-02-21 06:06:00,
2013-02-21 01:11:00,24.6,10.4,30.29,WSW,253,3.6,4.5,54,0.00,,---,0.00,VWS V13.01,2013-02-21 06:11:00,
2013-02-21 01:16:00,24.4,10.2,30.29,WNW,282,3.6,5.4,54,0.00,,---,0.00,VWS V13.01,2013-02-21 06:16:00,
2013-02-21 01:21:00,24.6,10.4,30.29,WSW,257,3.6,4.5,54,0.00,,---,0.00,VWS V13.01,2013-02-21 06:21:00,
2013-02-21 01:26:00,24.8,10.5,30.29,WSW,257,0.0,3.1,54,0.00,,---,0.00,VWS V13.01,2013-02-21 06:26:00,
2013-02-21 01:31:00,25.0,11.1,30.29,WNW,284,0.0,4.0,55,0.00,,---,0.00,VWS V13.01,2013-02-21 06:31:00,
2013-02-21 01:36:00,25.0,10.7,30.29,West,280,0.0,3.1,54,0.00,,---,0.00,VWS V13.01,2013-02-21 06:36:00,
2013-02-21 01:41:00,25.0,10.7,30.29,West,280,3.6,3.6,54,0.00,,---,0.00,VWS V13.01,2013-02-21 06:41:00,
2013-02-21 01:46:00,25.0,10.7,30.29,West,280,0.0,3.1,54,0.00,,---,0.00,VWS V13.01,2013-02-21 06:46:00,
2013-02-21 01:51:00,25.0,10.7,30.29,West,279,3.1,4.5,54,0.00,,---,0.00,VWS V13.01,2013-02-21 06:51:00,
2013-02-21 01:56:00,25.0,10.7,30.29,WSW,256,3.6,4.5,54,0.00,,---,0.00,VWS V13.01,2013-02-21 06:56:00,
2013-02-21 02:01:00,25.2,10.9,30.29,WSW,256,0.0,0.0,54,0.00,,---,0.00,VWS V13.01,2013-02-21 07:01:00,
2013-02-21 02:06:00,25.2,10.9,30.29,WSW,256,3.6,3.6,54,0.00,,---,0.00,VWS V13.01,2013-02-21 07:06:00,
2013-02-21 02:11:00,25.2,10.9,30.29,WNW,282,3.1,3.1,54,0.00,,---,0.00,VWS V13.01,2013-02-21 07:11:00,
2013-02-21 02:16:00,25.2,10.9,30.29,WSW,252,3.6,3.6,54,0.00,,---,0.00,VWS V13.01,2013-02-21 07:16:00,
2013-02-21 02:21:00,25.0,10.7,30.29,SW,236,3.1,4.0,54,0.00,,---,0.00,VWS V13.01,2013-02-21 07:21:00,
2013-02-21 02:26:00,24.8,10.1,30.29,WSW,237,2.7,2.7,53,0.00,,---,0.00,VWS V13.01,2013-02-21 07:26:00,
2013-02-21 02:31:00,25.0,10.7,30.29,WNW,297,4.5,4.5,54,0.00,,---,0.00,VWS V13.01,2013-02-21 07:31:00,
2013-02-21 02:36:00,24.6,10.4,30.29,West,259,0.0,0.0,54,0.00,,---,0.00,VWS V13.01,2013-02-21 07:36:00,
2013-02-21 02:41:00,24.8,10.5,30.29,WSW,255,2.7,2.7,54,0.00,,---,0.00,VWS V13.01,2013-02-21 07:41:00,
2013-02-21 02:46:00,24.8,10.5,30.29,WSW,252,3.6,3.6,54,0.00,,---,0.00,VWS V13.01,2013-02-21 07:46:00,
2013-02-21 02:51:00,24.8,10.5,30.29,WNW,286,0.0,0.0,54,0.00,,---,0.00,VWS V13.01,2013-02-21 07:51:00,
2013-02-21 02:56:00,25.0,10.7,30.29,WSW,245,2.7,3.6,54,0.00,,---,0.00,VWS V13.01,2013-02-21 07:56:00,
2013-02-21 03:01:00,24.6,10.4,30.29,West,276,4.5,4.5,54,0.00,,---,0.00,VWS V13.01,2013-02-21 08:01:00,
2013-02-21 03:06:00,24.8,10.5,30.29,WNW,294,7.4,7.4,54,0.00,,---,0.00,VWS V13.01,2013-02-21 08:06:00,
2013-02-21 03:11:00,24.8,10.5,30.29,NW,313,3.6,5.8,54,0.00,,---,0.00,VWS V13.01,2013-02-21 08:11:00,
2013-02-21 03:16:00,24.8,10.1,30.29,WNW,291,3.6,3.6,53,0.00,,---,0.00,VWS V13.01,2013-02-21 08:16:00,
2013-02-21 03:21:00,24.8,10.1,30.29,WSW,251,4.0,7.4,53,0.00,,---,0.00,VWS V13.01,2013-02-21 08:21:00,
2013-02-21 03:26:00,24.6,9.9,30.29,NW,313,4.9,6.9,53,0.00,,---,0.00,VWS V13.01,2013-02-21 08:26:00,
2013-02-21 03:31:00,24.6,9.5,30.29,WNW,293,5.4,5.4,52,0.00,,---,0.00,VWS V13.01,2013-02-21 08:31:00,
2013-02-21 03:36:00,24.8,9.7,30.29,NW,317,4.9,6.3,52,0.00,,---,0.00,VWS V13.01,2013-02-21 08:36:00,
2013-02-21 03:41:00,25.0,9.9,30.29,NW,311,4.0,6.3,52,0.00,,---,0.00,VWS V13.01,2013-02-21 08:41:00,
2013-02-21 03:46:00,25.0,9.9,30.29,NW,321,4.0,4.9,52,0.00,,---,0.00,VWS V13.01,2013-02-21 08:46:00,
2013-02-21 03:51:00,25.0,9.9,30.29,NW,326,6.9,9.6,52,0.00,,---,0.00,VWS V13.01,2013-02-21 08:51:00,
2013-02-21 03:56:00,24.8,9.7,30.29,NW,318,5.8,6.3,52,0.00,,---,0.00,VWS V13.01,2013-02-21 08:56:00,
2013-02-21 04:01:00,24.6,9.5,30.29,NW,317,5.4,6.9,52,0.00,,---,0.00,VWS V13.01,2013-02-21 09:01:00,
2013-02-21 04:06:00,24.6,9.5,30.29,WNW,300,3.6,4.9,52,0.00,,---,0.00,VWS V13.01,2013-02-21 09:06:00,
2013-02-21 04:11:00,24.6,9.5,30.29,NNW,339,6.7,6.7,52,0.00,,---,0.00,VWS V13.01,2013-02-21 09:11:00,
2013-02-21 04:16:00,24.8,9.7,30.29,NNW,342,10.1,10.1,52,0.00,,---,0.00,VWS V13.01,2013-02-21 09:16:00,
2013-02-21 04:21:00,24.8,9.7,30.29,NW,308,5.8,5.8,52,0.00,,---,0.00,VWS V13.01,2013-02-21 09:21:00,
2013-02-21 04:26:00,25.0,9.9,30.29,NNW,333,5.8,5.8,52,0.00,,---,0.00,VWS V13.01,2013-02-21 09:26:00,
2013-02-21 04:31:00,25.2,10.0,30.29,NW,326,4.5,5.4,52,0.00,,---,0.00,VWS V13.01,2013-02-21 09:31:00,
2013-02-21 04:36:00,25.0,9.9,30.29,North,0,3.6,6.7,52,0.00,,---,0.00,VWS V13.01,2013-02-21 09:36:00,
2013-02-21 04:41:00,25.2,10.0,30.29,NW,304,6.3,10.5,52,0.00,,---,0.00,VWS V13.01,2013-02-21 09:41:00,
2013-02-21 04:46:00,25.3,10.2,30.29,NW,325,6.9,10.1,52,0.00,,---,0.00,VWS V13.01,2013-02-21 09:46:00,
2013-02-21 04:51:00,25.2,9.6,30.29,West,262,4.9,6.7,51,0.00,,---,0.00,VWS V13.01,2013-02-21 09:51:00,
2013-02-21 04:56:00,25.3,9.8,30.29,NW,306,4.5,9.6,51,0.00,,---,0.00,VWS V13.01,2013-02-21 09:56:00,
2013-02-21 05:02:00,25.5,9.9,30.29,NW,309,5.4,6.7,51,0.00,,---,0.00,VWS V13.01,2013-02-21 10:02:00,
2013-02-21 05:07:00,25.5,10.4,30.29,NW,322,7.4,7.4,52,0.00,,---,0.00,VWS V13.01,2013-02-21 10:07:00,
2013-02-21 05:12:00,25.7,10.5,30.29,NW,304,5.8,8.3,52,0.00,,---,0.00,VWS V13.01,2013-02-21 10:12:00,
2013-02-21 05:17:00,26.2,11.0,30.29,NNW,328,4.0,5.8,52,0.00,,---,0.00,VWS V13.01,2013-02-21 10:17:00,
2013-02-21 05:22:00,26.4,11.2,30.29,NW,325,6.3,6.9,52,0.00,,---,0.00,VWS V13.01,2013-02-21 10:22:00,
2013-02-21 05:27:00,26.6,10.9,30.29,NW,326,3.6,6.9,51,0.00,,---,0.00,VWS V13.01,2013-02-21 10:27:00,
2013-02-21 05:32:00,26.4,10.3,30.29,NNW,329,4.5,6.7,50,0.00,,---,0.00,VWS V13.01,2013-02-21 10:32:00,
2013-02-21 05:37:00,26.2,10.1,30.29,WNW,302,2.7,4.0,50,0.00,,---,0.00,VWS V13.01,2013-02-21 10:37:00,
2013-02-21 05:42:00,26.2,10.1,30.29,NW,315,4.5,6.3,50,0.00,,---,0.00,VWS V13.01,2013-02-21 10:42:00,
2013-02-21 05:47:00,26.6,10.5,30.29,NW,307,4.0,5.4,50,0.00,,---,0.00,VWS V13.01,2013-02-21 10:47:00,
2013-02-21 05:52:00,26.8,10.6,30.29,NNW,328,5.4,5.4,50,0.00,,---,0.00,VWS V13.01,2013-02-21 10:52:00,
2013-02-21 05:57:00,26.8,10.6,30.29,NW,324,4.5,5.8,50,0.00,,---,0.00,VWS V13.01,2013-02-21 10:57:00,
2013-02-21 06:02:00,26.6,10.5,30.29,WNW,291,3.6,3.6,50,0.00,,---,0.00,VWS V13.01,2013-02-21 11:02:00,
2013-02-21 06:07:00,26.8,10.6,30.29,NW,322,3.1,4.0,50,0.00,,---,0.00,VWS V13.01,2013-02-21 11:07:00,
2013-02-21 06:12:00,26.8,10.6,30.32,West,281,3.6,4.9,50,0.00,,---,0.00,VWS V13.01,2013-02-21 11:12:00,
2013-02-21 06:17:00,26.6,9.6,30.32,WSW,250,5.8,5.8,48,0.00,,---,0.00,VWS V13.01,2013-02-21 11:17:00,
2013-02-21 06:22:00,26.1,9.1,30.32,West,278,3.6,6.3,48,0.00,,---,0.00,VWS V13.01,2013-02-21 11:22:00,
2013-02-21 06:27:00,25.9,8.9,30.32,NW,308,4.5,6.7,48,0.00,,---,0.00,VWS V13.01,2013-02-21 11:27:00,
2013-02-21 06:32:00,25.9,8.9,30.32,NW,325,3.6,6.7,48,0.00,,---,0.00,VWS V13.01,2013-02-21 11:32:00,
2013-02-21 06:37:00,25.9,9.4,30.32,NW,312,4.9,4.9,49,0.00,,---,0.00,VWS V13.01,2013-02-21 11:37:00,
2013-02-21 06:42:00,25.7,9.2,30.32,NW,325,4.9,4.9,49,0.00,,---,0.00,VWS V13.01,2013-02-21 11:42:00,
2013-02-21 06:47:00,25.9,9.4,30.32,NW,305,4.0,6.9,49,0.00,,---,0.00,VWS V13.01,2013-02-21 11:47:00,
2013-02-21 06:52:00,25.9,9.8,30.32,WNW,296,5.4,5.4,50,0.00,,---,0.00,VWS V13.01,2013-02-21 11:52:00,
2013-02-21 06:57:00,25.9,9.8,30.32,WNW,293,3.6,4.5,50,0.00,,---,0.00,VWS V13.01,2013-02-21 11:57:00,
2013-02-21 07:02:00,25.9,9.8,30.32,NNW,328,5.4,8.7,50,0.00,,---,0.00,VWS V13.01,2013-02-21 12:02:00,
2013-02-21 07:07:00,25.9,9.4,30.32,NW,318,5.8,5.8,49,0.00,,---,0.00,VWS V13.01,2013-02-21 12:07:00,
2013-02-21 07:12:00,25.9,9.8,30.32,NW,315,4.0,5.8,50,0.00,,---,0.00,VWS V13.01,2013-02-21 12:12:00,
2013-02-21 07:17:00,26.2,10.1,30.32,NW,326,4.9,6.3,50,0.00,,---,0.00,VWS V13.01,2013-02-21 12:17:00,
2013-02-21 07:22:00,26.2,10.6,30.32,NW,325,5.8,6.7,51,0.00,,---,0.00,VWS V13.01,2013-02-21 12:22:00,
2013-02-21 07:27:00,26.2,10.6,30.32,NNW,336,6.9,7.8,51,0.00,,---,0.00,VWS V13.01,2013-02-21 12:27:00,
2013-02-21 07:32:00,26.2,10.1,30.32,NW,317,4.9,4.9,50,0.00,,---,0.00,VWS V13.01,2013-02-21 12:32:00,
2013-02-21 07:37:00,26.6,10.9,30.32,NNW,339,0.0,4.0,51,0.00,,---,0.00,VWS V13.01,2013-02-21 12:37:00,
2013-02-21 07:42:00,26.6,10.9,30.32,NW,309,5.8,6.9,51,0.00,,---,0.00,VWS V13.01,2013-02-21 12:42:00,
2013-02-21 07:47:00,26.4,10.3,30.32,WNW,289,4.9,4.9,50,0.00,,---,0.00,VWS V13.01,2013-02-21 12:47:00,
2013-02-21 07:52:00,26.6,10.5,30.32,NW,325,5.4,5.4,50,0.00,,---,0.00,VWS V13.01,2013-02-21 12:52:00,
2013-02-21 07:57:00,26.8,10.6,30.32,NW,315,5.8,5.8,50,0.00,,---,0.00,VWS V13.01,2013-02-21 12:57:00,
2013-02-21 08:02:00,27.0,10.4,30.32,NW,306,3.6,4.5,49,0.00,,---,0.00,VWS V13.01,2013-02-21 13:02:00,
2013-02-21 08:07:00,27.0,10.4,30.32,NW,314,4.9,4.9,49,0.00,,---,0.00,VWS V13.01,2013-02-21 13:07:00,
2013-02-21 08:12:00,27.1,10.5,30.32,NNW,336,4.5,4.9,49,0.00,,---,0.00,VWS V13.01,2013-02-21 13:12:00,
2013-02-21 08:17:00,27.1,10.5,30.32,NW,321,3.6,4.9,49,0.00,,---,0.00,VWS V13.01,2013-02-21 13:17:00,
2013-02-21 08:22:00,27.1,10.5,30.32,NNW,328,0.0,4.0,49,0.00,,---,0.00,VWS V13.01,2013-02-21 13:22:00,
2013-02-21 08:27:00,27.1,11.0,30.32,NW,324,5.4,5.4,50,0.00,,---,0.00,VWS V13.01,2013-02-21 13:27:00,
2013-02-21 08:32:00,27.3,11.1,30.32,NNW,334,4.5,4.9,50,0.00,,---,0.00,VWS V13.01,2013-02-21 13:32:00,
2013-02-21 08:37:00,27.5,10.9,30.32,NW,322,4.5,5.4,49,0.00,,---,0.00,VWS V13.01,2013-02-21 13:37:00,
2013-02-21 08:42:00,27.7,11.0,30.29,NW,305,4.0,5.4,49,0.00,,---,0.00,VWS V13.01,2013-02-21 13:42:00,
2013-02-21 08:47:00,27.7,10.6,30.29,NNW,342,3.6,5.4,48,0.00,,---,0.00,VWS V13.01,2013-02-21 13:47:00,
2013-02-21 08:52:00,27.3,10.2,30.29,NW,313,4.5,5.8,48,0.00,,---,0.00,VWS V13.01,2013-02-21 13:52:00,
2013-02-21 08:57:00,27.3,10.2,30.32,NW,310,5.4,5.8,48,0.00,,---,0.00,VWS V13.01,2013-02-21 13:57:00,
2013-02-21 09:02:00,27.5,9.9,30.32,NW,318,4.0,6.3,47,0.00,,---,0.00,VWS V13.01,2013-02-21 14:02:00,
2013-02-21 09:07:00,27.5,9.9,30.32,NW,308,6.3,6.3,47,0.00,,---,0.00,VWS V13.01,2013-02-21 14:07:00,
2013-02-21 09:12:00,27.9,10.7,30.32,North,351,4.5,6.7,48,0.00,,---,0.00,VWS V13.01,2013-02-21 14:12:00,
2013-02-21 09:17:00,28.0,10.9,30.32,North,356,4.9,6.9,48,0.00,,---,0.00,VWS V13.01,2013-02-21 14:17:00,
2013-02-21 09:22:00,28.2,10.6,30.32,NNW,329,4.9,6.7,47,0.00,,---,0.00,VWS V13.01,2013-02-21 14:22:00,
2013-02-21 09:27:00,28.4,10.8,30.32,NW,304,0.0,0.0,47,0.00,,---,0.00,VWS V13.01,2013-02-21 14:27:00,
2013-02-21 09:32:00,28.6,10.9,30.32,NW,304,0.0,0.0,47,0.00,,---,0.00,VWS V13.01,2013-02-21 14:32:00,
2013-02-21 09:37:00,28.6,10.9,30.32,NW,313,4.9,4.9,47,0.00,,---,0.00,VWS V13.01,2013-02-21 14:37:00,
2013-02-21 09:42:00,28.6,10.9,30.35,NW,324,4.0,4.5,47,0.00,,---,0.00,VWS V13.01,2013-02-21 14:42:00,
2013-02-21 09:47:00,28.8,10.6,30.35,NW,315,3.6,3.6,46,0.00,,---,0.00,VWS V13.01,2013-02-21 14:47:00,
2013-02-21 09:52:00,28.9,11.2,30.35,North,6,4.9,6.7,47,0.00,,---,0.00,VWS V13.01,2013-02-21 14:52:00,
2013-02-21 09:57:00,29.5,11.3,30.32,North,351,4.0,6.7,46,0.00,,---,0.00,VWS V13.01,2013-02-21 14:57:00,
2013-02-21 10:02:00,29.1,10.9,30.32,North,351,4.9,4.9,46,0.00,,---,0.00,VWS V13.01,2013-02-21 15:02:00,
2013-02-21 10:07:00,29.3,10.6,30.32,North,4,6.3,6.3,45,0.00,,---,0.00,VWS V13.01,2013-02-21 15:07:00,
2013-02-21 10:12:00,29.5,10.8,30.32,North,7,0.0,0.0,45,0.00,,---,0.00,VWS V13.01,2013-02-21 15:12:00,
2013-02-21 10:17:00,29.3,10.6,30.32,NW,318,4.0,4.9,45,0.00,,---,0.00,VWS V13.01,2013-02-21 15:17:00,
2013-02-21 10:22:00,29.5,10.8,30.32,NW,321,4.5,6.3,45,0.00,,---,0.00,VWS V13.01,2013-02-21 15:22:00,
2013-02-21 10:27:00,29.7,10.9,30.35,NNW,336,0.0,4.5,45,0.00,,---,0.00,VWS V13.01,2013-02-21 15:27:00,
2013-02-21 10:32:00,30.2,11.4,30.35,North,10,4.9,6.3,45,0.00,,---,0.00,VWS V13.01,2013-02-21 15:32:00,
2013-02-21 10:37:00,30.6,11.8,30.35,NNW,338,6.7,6.7,45,0.00,,---,0.00,VWS V13.01,2013-02-21 15:37:00,
2013-02-21 10:43:00,30.4,11.1,30.32,North,351,4.5,7.4,44,0.00,,---,0.00,VWS V13.01,2013-02-21 15:43:00,
2013-02-21 10:48:00,30.9,11.6,30.32,North,351,0.0,0.0,44,0.00,,---,0.00,VWS V13.01,2013-02-21 15:48:00,
2013-02-21 10:53:00,30.7,10.9,30.32,NNW,337,4.5,6.3,43,0.00,,---,0.00,VWS V13.01,2013-02-21 15:53:00,
2013-02-21 10:58:00,31.1,11.8,30.32,NNW,331,3.6,5.8,44,0.00,,---,0.00,VWS V13.01,2013-02-21 15:58:00,
2013-02-21 11:03:00,31.3,11.4,30.32,NNE,13,2.7,3.6,43,0.00,,---,0.00,VWS V13.01,2013-02-21 16:03:00,
2013-02-21 11:08:00,31.5,11.6,30.32,North,356,3.6,5.8,43,0.00,,---,0.00,VWS V13.01,2013-02-21 16:08:00,
2013-02-21 11:13:00,31.6,11.7,30.32,NNW,339,4.5,4.5,43,0.00,,---,0.00,VWS V13.01,2013-02-21 16:13:00,
2013-02-21 11:18:00,32.4,12.4,30.32,North,4,4.0,6.9,43,0.00,,---,0.00,VWS V13.01,2013-02-21 16:18:00,
2013-02-21 11:23:00,32.4,11.9,30.32,NNE,14,4.5,7.4,42,0.00,,---,0.00,VWS V13.01,2013-02-21 16:23:00,
2013-02-21 11:28:00,32.0,11.5,30.29,North,351,4.9,8.3,42,0.00,,---,0.00,VWS V13.01,2013-02-21 16:28:00,
2013-02-21 11:33:00,32.4,11.9,30.29,NNW,332,4.5,5.8,42,0.00,,---,0.00,VWS V13.01,2013-02-21 16:33:00,
2013-02-21 11:38:00,32.5,12.0,30.29,NW,326,3.1,4.5,42,0.00,,---,0.00,VWS V13.01,2013-02-21 16:38:00,
2013-02-21 11:43:00,32.9,12.3,30.32,NNE,13,4.9,5.8,42,0.00,,---,0.00,VWS V13.01,2013-02-21 16:43:00,
2013-02-21 11:48:00,33.3,12.7,30.32,NE,38,2.7,3.6,42,0.00,,---,0.00,VWS V13.01,2013-02-21 16:48:00,
2013-02-21 11:53:00,33.3,12.1,30.32,NNE,20,4.0,6.3,41,0.00,,---,0.00,VWS V13.01,2013-02-21 16:53:00,
2013-02-21 11:58:00,33.4,12.3,30.32,NE,41,3.6,4.9,41,0.00,,---,0.00,VWS V13.01,2013-02-21 16:58:00,
2013-02-21 12:03:00,33.3,11.6,30.32,NNE,29,5.4,6.7,40,0.00,,---,0.00,VWS V13.01,2013-02-21 17:03:00,
2013-02-21 12:08:00,33.1,12.0,30.35,North,2,0.0,4.0,41,0.00,,---,0.00,VWS V13.01,2013-02-21 17:08:00,
2013-02-21 12:13:00,33.3,12.1,30.35,North,0,3.1,4.5,41,0.00,,---,0.00,VWS V13.01,2013-02-21 17:13:00,
2013-02-21 12:18:00,33.3,12.1,30.35,ENE,66,5.4,5.8,41,0.00,,---,0.00,VWS V13.01,2013-02-21 17:18:00,
2013-02-21 12:23:00,33.4,12.3,30.35,North,11,4.0,4.9,41,0.00,,---,0.00,VWS V13.01,2013-02-21 17:23:00,
2013-02-21 12:28:00,33.6,12.4,30.35,NNE,14,0.0,3.1,41,0.00,,---,0.00,VWS V13.01,2013-02-21 17:28:00,
2013-02-21 12:33:00,33.4,11.7,30.35,NNE,15,0.0,0.0,40,0.00,,---,0.00,VWS V13.01,2013-02-21 17:33:00,
2013-02-21 12:38:00,33.1,11.4,30.32,NNE,22,0.0,0.0,40,0.00,,---,0.00,VWS V13.01,2013-02-21 17:38:00,
2013-02-21 12:44:00,33.3,12.1,30.32,North,10,4.5,5.4,41,0.00,,---,0.00,VWS V13.01,2013-02-21 17:44:00,
2013-02-21 12:49:00,33.4,12.3,30.32,NNE,17,5.8,5.8,41,0.00,,---,0.00,VWS V13.01,2013-02-21 17:49:00,
2013-02-21 12:54:00,33.6,12.4,30.32,NNE,25,4.9,6.3,41,0.00,,---,0.00,VWS V13.01,2013-02-21 17:54:00,
2013-02-21 12:59:00,33.6,12.4,30.32,NNW,330,5.4,5.8,41,0.00,,---,0.00,VWS V13.01,2013-02-21 17:59:00,
2013-02-21 13:04:00,33.8,12.6,30.32,North,356,3.6,3.6,41,0.00,,---,0.00,VWS V13.01,2013-02-21 18:04:00,
2013-02-21 13:09:00,34.0,12.8,30.29,NW,320,3.6,4.9,41,0.00,,---,0.00,VWS V13.01,2013-02-21 18:09:00,
2013-02-21 13:14:00,34.3,13.6,30.29,NNW,344,4.5,5.8,42,0.00,,---,0.00,VWS V13.01,2013-02-21 18:14:00,
2013-02-21 13:19:00,34.7,13.4,30.29,North,351,6.3,8.3,41,0.00,,---,0.00,VWS V13.01,2013-02-21 18:19:00,
2013-02-21 13:24:00,34.7,12.9,30.29,North,5,2.7,6.3,40,0.00,,---,0.00,VWS V13.01,2013-02-21 18:24:00,
2013-02-21 13:29:00,35.1,13.8,30.29,NNW,344,4.9,7.4,41,0.00,,---,0.00,VWS V13.01,2013-02-21 18:29:00,
2013-02-21 13:34:00,35.2,13.4,30.29,NE,39,2.7,4.0,40,0.00,,---,0.00,VWS V13.01,2013-02-21 18:34:00,
2013-02-21 13:39:00,35.1,13.2,30.29,North,4,5.4,5.8,40,0.00,,---,0.00,VWS V13.01,2013-02-21 18:39:00,
2013-02-21 13:44:00,34.9,13.0,30.29,North,11,4.5,7.4,40,0.00,,---,0.00,VWS V13.01,2013-02-21 18:44:00,
2013-02-21 13:49:00,35.2,13.9,30.29,NE,52,5.4,5.8,41,0.00,,---,0.00,VWS V13.01,2013-02-21 18:49:00,
2013-02-21 13:54:00,35.2,13.4,30.26,North,351,3.1,6.3,40,0.00,,---,0.00,VWS V13.01,2013-02-21 18:54:00,
2013-02-21 13:59:00,35.1,13.2,30.26,ENE,60,6.7,7.8,40,0.00,,---,0.00,VWS V13.01,2013-02-21 18:59:00,
2013-02-21 14:04:00,34.9,13.0,30.26,North,6,8.3,8.3,40,0.00,,---,0.00,VWS V13.01,2013-02-21 19:04:00,
2013-02-21 14:09:00,35.1,13.8,30.26,North,356,6.7,7.4,41,0.00,,---,0.00,VWS V13.01,2013-02-21 19:09:00,
2013-02-21 14:14:00,35.6,14.2,30.26,North,351,5.8,7.8,41,0.00,,---,0.00,VWS V13.01,2013-02-21 19:14:00,
2013-02-21 14:19:00,36.1,14.7,30.26,North,356,9.6,10.5,41,0.00,,---,0.00,VWS V13.01,2013-02-21 19:19:00,
2013-02-21 14:24:00,35.6,13.7,30.26,NNW,341,6.7,10.1,40,0.00,,---,0.00,VWS V13.01,2013-02-21 19:24:00,
2013-02-21 14:29:00,35.8,14.4,30.26,NNW,343,5.4,9.6,41,0.00,,---,0.00,VWS V13.01,2013-02-21 19:29:00,
2013-02-21 14:34:00,36.5,15.1,30.26,NNE,16,7.4,9.2,41,0.00,,---,0.00,VWS V13.01,2013-02-21 19:34:00,
2013-02-21 14:39:00,36.7,15.2,30.23,NNW,343,4.0,10.1,41,0.00,,---,0.00,VWS V13.01,2013-02-21 19:39:00,
2013-02-21 14:44:00,37.0,15.5,30.23,North,351,7.8,11.2,41,0.00,,---,0.00,VWS V13.01,2013-02-21 19:44:00,
2013-02-21 14:49:00,37.6,15.5,30.23,NNE,21,9.2,9.6,40,0.00,,---,0.00,VWS V13.01,2013-02-21 19:49:00,
2013-02-21 14:54:00,36.7,14.6,30.20,NNW,343,6.7,6.9,40,0.00,,---,0.00,VWS V13.01,2013-02-21 19:54:00,
2013-02-21 14:59:00,36.5,15.1,30.20,North,356,4.9,5.4,41,0.00,,---,0.00,VWS V13.01,2013-02-21 19:59:00,
2013-02-21 15:04:00,36.3,14.3,30.20,NNE,29,7.4,7.4,40,0.00,,---,0.00,VWS V13.01,2013-02-21 20:04:00,
2013-02-21 15:09:00,35.6,13.7,30.20,NE,44,5.8,8.7,40,0.00,,---,0.00,VWS V13.01,2013-02-21 20:09:00,
2013-02-21 15:14:00,35.4,14.1,30.20,North,351,6.9,8.7,41,0.00,,---,0.00,VWS V13.01,2013-02-21 20:14:00,
2013-02-21 15:19:00,35.2,13.9,30.20,North,1,8.7,11.0,41,0.00,,---,0.00,VWS V13.01,2013-02-21 20:19:00,
2013-02-21 15:24:00,35.4,14.1,30.20,NNW,347,7.4,9.6,41,0.00,,---,0.00,VWS V13.01,2013-02-21 20:24:00,
2013-02-21 15:29:00,35.8,14.4,30.20,NNW,341,6.3,11.0,41,0.00,,---,0.00,VWS V13.01,2013-02-21 20:29:00,
2013-02-21 15:34:00,35.8,14.4,30.20,North,351,8.7,9.6,41,0.00,,---,0.00,VWS V13.01,2013-02-21 20:34:00,
2013-02-21 15:39:00,35.4,14.1,30.20,NNE,22,6.9,11.0,41,0.00,,---,0.00,VWS V13.01,2013-02-21 20:39:00,
2013-02-21 15:44:00,35.2,13.9,30.20,North,10,8.3,8.3,41,0.00,,---,0.00,VWS V13.01,2013-02-21 20:44:00,
2013-02-21 15:49:00,35.1,13.8,30.20,North,351,4.9,6.3,41,0.00,,---,0.00,VWS V13.01,2013-02-21 20:49:00,
2013-02-21 15:54:00,34.9,13.6,30.23,North,5,4.5,6.9,41,0.00,,---,0.00,VWS V13.01,2013-02-21 20:54:00,
2013-02-21 15:59:00,34.7,13.4,30.23,ENE,62,7.4,7.8,41,0.00,,---,0.00,VWS V13.01,2013-02-21 20:59:00,
2013-02-21 16:04:00,34.3,13.6,30.23,ENE,71,6.3,6.3,42,0.00,,---,0.00,VWS V13.01,2013-02-21 21:04:00,
2013-02-21 16:09:00,34.2,12.9,30.26,North,11,3.6,7.4,41,0.00,,---,0.00,VWS V13.01,2013-02-21 21:09:00,
2013-02-21 16:14:00,34.0,13.3,30.26,ENE,63,5.8,5.8,42,0.00,,---,0.00,VWS V13.01,2013-02-21 21:14:00,
2013-02-21 16:19:00,33.6,13.0,30.26,North,5,4.9,4.9,42,0.00,,---,0.00,VWS V13.01,2013-02-21 21:19:00,
2013-02-21 16:24:00,33.3,12.7,30.26,North,2,4.5,6.9,42,0.00,,---,0.00,VWS V13.01,2013-02-21 21:24:00,
2013-02-21 16:29:00,33.3,13.2,30.26,NNE,28,6.3,6.9,43,0.00,,---,0.00,VWS V13.01,2013-02-21 21:29:00,
2013-02-21 16:34:00,33.4,13.4,30.26,North,7,6.7,6.7,43,0.00,,---,0.00,VWS V13.01,2013-02-21 21:34:00,
2013-02-21 16:39:00,33.4,13.9,30.26,NNE,26,5.4,6.7,44,0.00,,---,0.00,VWS V13.01,2013-02-21 21:39:00,
2013-02-21 16:44:00,33.6,14.1,30.26,NE,37,7.4,7.4,44,0.00,,---,0.00,VWS V13.01,2013-02-21 21:44:00,
2013-02-21 16:49:00,33.6,14.1,30.26,NNE,31,5.8,6.7,44,0.00,,---,0.00,VWS V13.01,2013-02-21 21:49:00,
2013-02-21 16:54:00,33.3,13.2,30.23,ESE,108,5.8,7.4,43,0.00,,---,0.00,VWS V13.01,2013-02-21 21:54:00,
2013-02-21 16:59:00,33.1,13.0,30.23,NNE,24,6.7,6.7,43,0.00,,---,0.00,VWS V13.01,2013-02-21 21:59:00,
2013-02-21 17:04:00,32.7,13.7,30.23,NE,35,6.9,6.9,45,0.00,,---,0.00,VWS V13.01,2013-02-21 22:04:00,
2013-02-21 17:09:00,32.7,13.7,30.23,NE,44,4.9,5.8,45,0.00,,---,0.00,VWS V13.01,2013-02-21 22:09:00,
2013-02-21 17:14:00,32.7,13.7,30.23,North,0,5.4,8.3,45,0.00,,---,0.00,VWS V13.01,2013-02-21 22:14:00,
2013-02-21 17:19:00,32.7,13.7,30.23,NNE,28,6.7,6.7,45,0.00,,---,0.00,VWS V13.01,2013-02-21 22:19:00,
2013-02-21 17:24:00,32.5,13.6,30.23,North,356,5.4,7.8,45,0.00,,---,0.00,VWS V13.01,2013-02-21 22:24:00,
2013-02-21 17:29:00,32.5,13.6,30.23,NE,48,4.0,6.9,45,0.00,,---,0.00,VWS V13.01,2013-02-21 22:29:00,
2013-02-21 17:34:00,32.5,14.1,30.23,ENE,58,4.5,5.8,46,0.00,,---,0.00,VWS V13.01,2013-02-21 22:34:00,
2013-02-21 17:39:00,32.2,13.7,30.23,NE,53,4.9,8.3,46,0.00,,---,0.00,VWS V13.01,2013-02-21 22:39:00,
2013-02-21 17:44:00,32.0,13.1,30.23,East,80,5.8,5.8,45,0.00,,---,0.00,VWS V13.01,2013-02-21 22:44:00,
2013-02-21 17:49:00,31.8,12.9,30.23,NE,51,4.9,7.4,45,0.00,,---,0.00,VWS V13.01,2013-02-21 22:49:00,
2013-02-21 17:55:00,31.3,12.4,30.26,NE,48,5.4,7.4,45,0.00,,---,0.00,VWS V13.01,2013-02-21 22:55:00,
2013-02-21 18:00:00,31.1,12.8,30.26,NE,54,8.3,9.6,46,0.00,,---,0.00,VWS V13.01,2013-02-21 23:00:00,
2013-02-21 18:05:00,30.7,12.9,30.26,NNE,20,5.4,10.5,47,0.00,,---,0.00,VWS V13.01,2013-02-21 23:05:00,
2013-02-21 18:10:00,30.6,12.7,30.23,East,80,5.8,9.6,47,0.00,,---,0.00,VWS V13.01,2013-02-21 23:10:00,
2013-02-21 18:15:00,30.2,12.9,30.23,NNE,30,5.8,9.6,48,0.00,,---,0.00,VWS V13.01,2013-02-21 23:15:00,
2013-02-21 18:20:00,30.4,13.5,30.23,NE,52,5.4,6.9,49,0.00,,---,0.00,VWS V13.01,2013-02-21 23:20:00,
2013-02-21 18:25:00,30.2,13.4,30.23,NNE,13,5.8,6.3,49,0.00,,---,0.00,VWS V13.01,2013-02-21 23:25:00,
2013-02-21 18:30:00,30.4,14.0,30.23,ENE,70,8.3,8.7,50,0.00,,---,0.00,VWS V13.01,2013-02-21 23:30:00,
2013-02-21 18:35:00,30.4,14.0,30.23,ENE,64,8.7,8.7,50,0.00,,---,0.00,VWS V13.01,2013-02-21 23:35:00,
2013-02-21 18:40:00,30.6,14.6,30.23,NNE,28,4.5,4.5,51,0.00,,---,0.00,VWS V13.01,2013-02-21 23:40:00,
2013-02-21 18:45:00,30.9,14.9,30.23,NE,37,9.2,11.2,51,0.00,,---,0.00,VWS V13.01,2013-02-21 23:45:00,
2013-02-21 18:50:00,30.7,14.8,30.23,NNE,12,6.7,8.7,51,0.00,,---,0.00,VWS V13.01,2013-02-21 23:50:00,
2013-02-21 18:55:00,30.7,14.3,30.23,ENE,57,4.9,8.3,50,0.00,,---,0.00,VWS V13.01,2013-02-21 23:55:00,
2013-02-21 19:00:00,30.7,14.3,30.23,East,81,5.4,11.2,50,0.00,,---,0.00,VWS V13.01,2013-02-22 00:00:00,
2013-02-21 19:05:00,30.4,13.5,30.23,NE,45,8.3,8.3,49,0.00,,---,0.00,VWS V13.01,2013-02-22 00:05:00,
2013-02-21 19:10:00,30.4,13.5,30.23,ENE,72,9.6,11.2,49,0.00,,---,0.00,VWS V13.01,2013-02-22 00:10:00,
2013-02-21 19:15:00,30.0,12.7,30.23,NE,40,6.3,11.0,48,0.00,,---,0.00,VWS V13.01,2013-02-22 00:15:00,
2013-02-21 19:20:00,30.4,14.0,30.23,ENE,68,7.8,7.8,50,0.00,,---,0.00,VWS V13.01,2013-02-22 00:20:00,
2013-02-21 19:25:00,30.0,12.7,30.23,ENE,65,6.3,7.8,48,0.00,,---,0.00,VWS V13.01,2013-02-22 00:25:00,
2013-02-21 19:30:00,29.8,12.6,30.23,ENE,57,8.3,9.6,48,0.00,,---,0.00,VWS V13.01,2013-02-22 00:30:00,
2013-02-21 19:35:00,29.7,12.9,30.23,NE,41,7.4,7.4,49,0.00,,---,0.00,VWS V13.01,2013-02-22 00:35:00,
2013-02-21 19:40:00,29.5,13.1,30.23,ENE,68,8.3,8.3,50,0.00,,---,0.00,VWS V13.01,2013-02-22 00:40:00,
2013-02-21 19:45:00,29.1,12.8,30.23,NNE,31,6.7,6.7,50,0.00,,---,0.00,VWS V13.01,2013-02-22 00:45:00,
2013-02-21 19:50:00,29.1,13.3,30.23,ESE,103,3.6,7.8,51,0.00,,---,0.00,VWS V13.01,2013-02-22 00:50:00,
2013-02-21 19:55:00,28.9,12.6,30.20,NE,49,6.9,12.1,50,0.00,,---,0.00,VWS V13.01,2013-02-22 00:55:00,
2013-02-21 20:00:00,28.8,12.5,30.20,East,83,6.9,11.6,50,0.00,,---,0.00,VWS V13.01,2013-02-22 01:00:00,
2013-02-21 20:05:00,28.2,12.0,30.20,East,88,6.9,13.4,50,0.00,,---,0.00,VWS V13.01,2013-02-22 01:05:00,
2013-02-21 20:10:00,28.2,12.4,30.20,NNE,29,6.9,9.2,51,0.00,,---,0.00,VWS V13.01,2013-02-22 01:10:00,
2013-02-21 20:15:00,28.4,12.6,30.20,North,3,8.7,8.7,51,0.00,,---,0.00,VWS V13.01,2013-02-22 01:15:00,
2013-02-21 20:20:00,28.4,13.0,30.20,NNW,333,7.4,7.4,52,0.00,,---,0.00,VWS V13.01,2013-02-22 01:20:00,
2013-02-21 20:25:00,28.2,12.4,30.20,NE,36,6.9,11.6,51,0.00,,---,0.00,VWS V13.01,2013-02-22 01:25:00,
2013-02-21 20:30:00,28.2,12.4,30.20,North,351,4.0,9.6,51,0.00,,---,0.00,VWS V13.01,2013-02-22 01:30:00,
2013-02-21 20:35:00,28.4,13.0,30.20,ENE,72,6.9,6.9,52,0.00,,---,0.00,VWS V13.01,2013-02-22 01:35:00,
2013-02-21 20:40:00,28.0,12.3,30.20,NE,41,6.3,6.7,51,0.00,,---,0.00,VWS V13.01,2013-02-22 01:40:00,
2013-02-21 20:45:00,28.2,12.9,30.20,ENE,59,6.3,6.3,52,0.00,,---,0.00,VWS V13.01,2013-02-22 01:45:00,
2013-02-21 20:50:00,28.0,12.7,30.20,NE,34,6.3,7.4,52,0.00,,---,0.00,VWS V13.01,2013-02-22 01:50:00,
2013-02-21 20:55:00,28.2,12.9,30.17,ENE,59,8.3,8.3,52,0.00,,---,0.00,VWS V13.01,2013-02-22 01:55:00,
2013-02-21 21:00:00,28.2,12.9,30.17,ENE,75,8.7,13.0,52,0.00,,---,0.00,VWS V13.01,2013-02-22 02:00:00,
2013-02-21 21:05:00,28.0,12.7,30.17,NE,52,6.9,7.8,52,0.00,,---,0.00,VWS V13.01,2013-02-22 02:05:00,
2013-02-21 21:10:00,27.9,12.5,30.17,ENE,63,8.7,9.2,52,0.00,,---,0.00,VWS V13.01,2013-02-22 02:10:00,
2013-02-21 21:15:00,27.9,12.5,30.17,NNE,16,12.1,12.1,52,0.00,,---,0.00,VWS V13.01,2013-02-22 02:15:00,
2013-02-21 21:20:00,27.7,12.4,30.17,NE,35,8.3,13.0,52,0.00,,---,0.00,VWS V13.01,2013-02-22 02:20:00,
2013-02-21 21:25:00,27.3,12.0,30.17,East,85,7.4,12.1,52,0.00,,---,0.00,VWS V13.01,2013-02-22 02:25:00,
2013-02-21 21:30:00,27.1,11.4,30.17,East,99,6.3,11.0,51,0.00,,---,0.00,VWS V13.01,2013-02-22 02:30:00,
2013-02-21 21:35:00,27.1,11.9,30.17,NNE,30,4.9,4.9,52,0.00,,---,0.00,VWS V13.01,2013-02-22 02:35:00,
2013-02-21 21:40:00,27.0,11.7,30.17,NE,40,6.9,10.5,52,0.00,,---,0.00,VWS V13.01,2013-02-22 02:40:00,
2013-02-21 21:45:00,26.8,11.5,30.17,East,93,6.9,6.9,52,0.00,,---,0.00,VWS V13.01,2013-02-22 02:45:00,
2013-02-21 21:50:00,27.0,11.7,30.17,ENE,67,6.3,10.5,52,0.00,,---,0.00,VWS V13.01,2013-02-22 02:50:00,
2013-02-21 21:55:00,27.1,11.9,30.17,NNE,23,7.8,10.1,52,0.00,,---,0.00,VWS V13.01,2013-02-22 02:55:00,
2013-02-21 22:00:00,27.0,11.7,30.17,NE,55,10.1,13.9,52,0.00,,---,0.00,VWS V13.01,2013-02-22 03:00:00,
2013-02-21 22:05:00,26.6,10.9,30.17,NNE,13,5.8,10.1,51,0.00,,---,0.00,VWS V13.01,2013-02-22 03:05:00,
2013-02-21 22:10:00,26.2,10.1,30.17,East,99,9.2,12.5,50,0.00,,---,0.00,VWS V13.01,2013-02-22 03:10:00,
2013-02-21 22:15:00,26.1,10.0,30.17,NNE,30,8.3,9.6,50,0.00,,---,0.00,VWS V13.01,2013-02-22 03:15:00,
2013-02-21 22:20:00,26.1,10.0,30.17,ENE,76,8.7,9.6,50,0.00,,---,0.00,VWS V13.01,2013-02-22 03:20:00,
2013-02-21 22:25:00,26.1,10.0,30.17,ENE,78,8.7,14.3,50,0.00,,---,0.00,VWS V13.01,2013-02-22 03:25:00,
2013-02-21 22:30:00,25.7,9.6,30.17,ESE,112,7.8,10.1,50,0.00,,---,0.00,VWS V13.01,2013-02-22 03:30:00,
2013-02-21 22:35:00,25.3,8.9,30.17,NNW,332,5.8,11.0,49,0.00,,---,0.00,VWS V13.01,2013-02-22 03:35:00,
2013-02-21 22:40:00,25.2,9.1,30.17,ENE,67,10.1,12.1,50,0.00,,---,0.00,VWS V13.01,2013-02-22 03:40:00,
2013-02-21 22:45:00,25.3,9.8,30.17,NNE,27,6.7,6.7,51,0.00,,---,0.00,VWS V13.01,2013-02-22 03:45:00,
2013-02-21 22:50:00,25.3,9.8,30.17,ENE,73,6.3,6.9,51,0.00,,---,0.00,VWS V13.01,2013-02-22 03:50:00,
2013-02-21 22:55:00,25.5,9.9,30.17,NE,53,6.3,6.9,51,0.00,,---,0.00,VWS V13.01,2013-02-22 03:55:00,
2013-02-21 23:00:00,25.2,9.6,30.17,NNE,30,5.4,13.4,51,0.00,,---,0.00,VWS V13.01,2013-02-22 04:00:00,
2013-02-21 23:05:00,24.8,9.2,30.17,ENE,76,7.4,7.4,51,0.00,,---,0.00,VWS V13.01,2013-02-22 04:05:00,
2013-02-21 23:10:00,24.6,9.1,30.14,East,90,12.1,12.1,51,0.00,,---,0.00,VWS V13.01,2013-02-22 04:10:00,
2013-02-21 23:15:00,24.3,9.2,30.14,NE,53,6.7,16.8,52,0.00,,---,0.00,VWS V13.01,2013-02-22 04:15:00,
2013-02-21 23:20:00,24.1,9.0,30.14,ENE,70,11.2,14.3,52,0.00,,---,0.00,VWS V13.01,2013-02-22 04:20:00,
2013-02-21 23:25:00,24.3,9.6,30.14,ENE,77,6.9,12.5,53,0.00,,---,0.00,VWS V13.01,2013-02-22 04:25:00,
2013-02-21 23:30:00,24.3,9.6,30.14,NE,44,4.9,14.8,53,0.00,,---,0.00,VWS V13.01,2013-02-22 04:30:00,
2013-02-21 23:35:00,24.3,9.6,30.14,NE,52,8.3,11.6,53,0.00,,---,0.00,VWS V13.01,2013-02-22 04:35:00,
2013-02-21 23:40:00,24.6,10.4,30.11,NE,47,5.4,16.3,54,0.00,,---,0.00,VWS V13.01,2013-02-22 04:40:00,
2013-02-21 23:45:00,24.4,9.8,30.11,NNE,16,5.4,11.2,53,0.00,,---,0.00,VWS V13.01,2013-02-22 04:45:00,
2013-02-21 23:50:00,24.4,10.2,30.11,NNE,20,2.7,16.3,54,0.00,,---,0.00,VWS V13.01,2013-02-22 04:50:00,
2013-02-21 23:55:00,24.6,10.4,30.11,NNW,346,8.7,12.1,54,0.00,,---,0.00,VWS V13.01,2013-02-22 04:55:00,